Randle, WA (98377)

7:03 PM PST on December 28, 2014 (GMT -0800)
RAWS ORR CREEK WA US | Change Station
CLOSE
Current Station
Personal Weather Station
Location: Randle, WA
Elevation: 3000 ft
Nearby Weather Stations

Elev 3000 ft 46.35 °N, 121.60 °W | Updated 54 minutes ago

Overcast
Overcast
32 °F
Feels Like 32 °F
N
1
Wind Variable Wind from East
Gusts 3.0 mph

Today
High -- | Low -- °F
--% Chance of Precip.
Yesterday
High -- | Low -- °F
Precip. -- in
7:51 AM 4:27 PM
First Quarter, 54% visible
Pressure 30.16 in
Visibility 10.0 miles
Clouds Few 3700 ft
Overcast 4900 ft
Windchill 32 °F
Dew Point 32 °F
Humidity 100%
Rainfall 0.05 in
Snow Depth Not available.
UV 0 out of 12
Pollen .50 out of 12
Air Quality Not available.
Flu Activity Not available.
METAR KGRF 290258Z AUTO 14001KT 10SM FEW037 OVC049 04/04 A3014 RMK AO2 DZB22E33 SLP213 P0000 60000 T00430041 57008 $

More Conditions Fewer Conditions

Pressure 30.16 in
Visibility 10.0 miles
Clouds Few 3700 ft
Overcast 4900 ft
Windchill 32 °F
Dew Point 32 °F
Humidity 100%
Rainfall 0.05 in
Snow Depth Not available.
UV 0 out of 12
Pollen .50 out of 12
Air Quality Not available.
Flu Activity Not available.
METAR KGRF 290258Z AUTO 14001KT 10SM FEW037 OVC049 04/04 A3014 RMK AO2 DZB22E33 SLP213 P0000 60000 T00430041 57008 $

More Conditions Fewer Conditions

10-Day Weather Forecast

Almanac

Astronomy

Dec. 28, 2014 Rise Set
Actual Time
Civil Twilight
Nautical Twilight
Astronomical Twilight
Moon
Length of Visible Light
Length of Day
Tomorrow will be .
, % of the Moon is Illuminated

Today's Extremes

State Highs State Lows

Community

WunderPhotos

Upload Photos

1,781,508 photos uploaded!

WunderBlogs® & News

Nearby

Air Quality

  Air Quality AQ Index Pollutant
Not available.

Snow Depth

Station Depth Elevation

Earthquake Activity

City Distance Mag. Time & Date
Minimum magnitude displayed is 2.5.

Coastal Water Temperatures

Place Temperature

Nearby Weather Stations